Wetterdaten: Woche 13.09.04 - 19.09.04 (KW38)
Datum Zeit Temperatur Luftfeuchte Luftdruck Regenmenge Wind Richtung Taupunkt Windchill
13.09.2004 00:00 11.3 C 95 % 1020.9 hPa 0.0 l/m 0.0 km/h (0 Bft) N 10.5 C 11.3 C
13.09.2004 01:00 11.0 C 97 % 1020.6 hPa 0.0 l/m 0.0 km/h (0 Bft) N 10.5 C 11.0 C
13.09.2004 02:00 10.0 C 97 % 1020.3 hPa 0.0 l/m 0.0 km/h (0 Bft) N 9.6 C 10.0 C
13.09.2004 03:00 10.2 C 99 % 1019.7 hPa 0.0 l/m 0.0 km/h (0 Bft) N 10.0 C 10.2 C
13.09.2004 04:00 10.7 C 100 % 1019.6 hPa 0.0 l/m 0.0 km/h (0 Bft) N 10.7 C 10.7 C
13.09.2004 05:00 10.7 C 99 % 1019.5 hPa 0.0 l/m 0.0 km/h (0 Bft) N 10.6 C 10.7 C
13.09.2004 06:00 9.4 C 99 % 1018.8 hPa 0.0 l/m 0.0 km/h (0 Bft) N 9.3 C 9.4 C
13.09.2004 07:00 10.7 C 100 % 1019.2 hPa 0.0 l/m 0.0 km/h (0 Bft) N 10.7 C 10.7 C
13.09.2004 08:00 12.5 C 94 % 1019.4 hPa 0.0 l/m 0.1 km/h (0 Bft) S-SO 11.7 C 12.5 C
13.09.2004 09:00 13.8 C 86 % 1019.2 hPa 0.0 l/m 0.2 km/h (0 Bft) S 11.6 C 13.8 C
13.09.2004 10:00 15.8 C 78 % 1018.9 hPa 0.0 l/m 1.5 km/h (1 Bft) O-NO 12.0 C 15.8 C
13.09.2004 11:00 18.0 C 67 % 1017.6 hPa 0.0 l/m 3.5 km/h (1 Bft) O-SO 11.7 C 18.0 C
13.09.2004 12:00 21.2 C 53 % 1016.5 hPa 0.0 l/m 11.5 km/h (2 Bft) O-SO 11.2 C 21.2 C
13.09.2004 13:00 21.7 C 50 % 1015.4 hPa 0.0 l/m 7.3 km/h (2 Bft) O-SO 10.7 C 21.7 C
13.09.2004 14:00 22.8 C 47 % 1014.3 hPa 0.0 l/m 11.5 km/h (2 Bft) O-SO 11.0 C 22.8 C
13.09.2004 15:00 23.5 C 43 % 1013.6 hPa 0.0 l/m 9.7 km/h (2 Bft) SO 10.2 C 23.5 C
13.09.2004 16:00 24.2 C 43 % 1012.7 hPa 0.0 l/m 8.8 km/h (2 Bft) SW 10.7 C 24.2 C
13.09.2004 17:00 23.6 C 46 % 1012.7 hPa 0.0 l/m 2.8 km/h (1 Bft) O-SO 11.4 C 23.6 C
13.09.2004 18:00 21.5 C 53 % 1013.0 hPa 0.0 l/m 6.8 km/h (2 Bft) O-SO 11.4 C 21.5 C
13.09.2004 19:00 20.3 C 60 % 1013.1 hPa 0.0 l/m 1.9 km/h (1 Bft) O-SO 12.3 C 20.3 C
13.09.2004 20:00 19.2 C 65 % 1013.7 hPa 0.0 l/m 4.2 km/h (1 Bft) W-NW 12.4 C 19.2 C
13.09.2004 21:00 18.5 C 67 % 1013.9 hPa 0.0 l/m 5.9 km/h (2 Bft) O-SO 12.3 C 18.5 C
13.09.2004 22:00 16.3 C 80 % 1013.7 hPa 0.0 l/m 2.5 km/h (1 Bft) O-SO 12.9 C 16.3 C
13.09.2004 23:00 16.2 C 83 % 1014.4 hPa 0.0 l/m 1.1 km/h (1 Bft) O-SO 13.3 C 16.2 C
14.09.2004 00:00 15.1 C 89 % 1013.9 hPa 0.0 l/m 0.0 km/h (0 Bft) N 13.2 C 15.1 C
14.09.2004 01:00 14.5 C 94 % 1013.9 hPa 0.0 l/m 1.5 km/h (1 Bft) O 13.5 C 14.5 C
14.09.2004 02:00 14.0 C 95 % 1014.0 hPa 0.0 l/m 0.0 km/h (0 Bft) N 13.3 C 14.0 C
14.09.2004 03:00 14.2 C 97 % 1014.3 hPa 0.0 l/m 0.5 km/h (0 Bft) O-NO 13.8 C 14.2 C
14.09.2004 04:00 14.6 C 96 % 1014.4 hPa 0.0 l/m 1.1 km/h (1 Bft) W-NW 13.9 C 14.6 C
14.09.2004 05:00 14.4 C 98 % 1014.7 hPa 0.6 l/m 2.6 km/h (1 Bft) O-SO 14.2 C 14.4 C
14.09.2004 06:00 14.7 C 100 % 1014.8 hPa 3.1 l/m 2.2 km/h (1 Bft) O-SO 14.7 C 14.7 C
14.09.2004 07:00 14.9 C 100 % 1014.9 hPa 0.9 l/m 0.6 km/h (0 Bft) O-SO 14.9 C 14.9 C
14.09.2004 08:00 15.8 C 100 % 1014.8 hPa 0.0 l/m 1.1 km/h (1 Bft) O-SO 15.8 C 15.8 C
14.09.2004 09:00 15.9 C 100 % 1015.3 hPa 3.4 l/m 2.0 km/h (1 Bft) O-SO 15.9 C 15.9 C
14.09.2004 10:00 15.8 C 100 % 1015.8 hPa 2.2 l/m 2.9 km/h (1 Bft) O-SO 15.8 C 15.8 C
14.09.2004 11:00 16.3 C 100 % 1014.8 hPa 0.3 l/m 0.0 km/h (0 Bft) N 16.3 C 16.3 C
14.09.2004 12:00 16.9 C 100 % 1014.6 hPa 0.0 l/m 0.0 km/h (0 Bft) N 16.9 C 16.9 C
14.09.2004 13:00 18.4 C 91 % 1013.4 hPa 0.0 l/m 0.4 km/h (0 Bft) O-NO 16.9 C 18.4 C
14.09.2004 14:00 19.3 C 84 % 1013.3 hPa 0.0 l/m 0.5 km/h (0 Bft) O-NO 16.4 C 19.3 C
14.09.2004 15:00 19.4 C 85 % 1013.3 hPa 0.0 l/m 0.8 km/h (0 Bft) O 16.9 C 19.4 C
14.09.2004 16:00 19.4 C 90 % 1012.5 hPa 0.0 l/m 0.0 km/h (0 Bft) N 17.6 C 19.4 C
14.09.2004 17:00 18.8 C 92 % 1012.3 hPa 0.0 l/m 0.2 km/h (0 Bft) O 17.4 C 18.8 C
14.09.2004 18:00 16.8 C 93 % 1013.2 hPa 4.0 l/m 6.5 km/h (2 Bft) NW 15.6 C 16.8 C
14.09.2004 19:00 15.4 C 98 % 1013.8 hPa 0.0 l/m 0.2 km/h (0 Bft) O-NO 15.1 C 15.4 C
14.09.2004 20:00 15.1 C 100 % 1014.3 hPa 0.0 l/m 0.0 km/h (0 Bft) N 15.0 C 15.1 C
14.09.2004 21:00 15.1 C 100 % 1014.9 hPa 0.0 l/m 1.3 km/h (1 Bft) O 15.1 C 15.1 C
14.09.2004 22:00 15.3 C 100 % 1015.8 hPa 0.0 l/m 0.1 km/h (0 Bft) O 15.3 C 15.3 C
14.09.2004 23:00 15.4 C 100 % 1015.9 hPa 0.0 l/m 0.0 km/h (0 Bft) N 15.4 C 15.4 C
15.09.2004 00:00 15.4 C 100 % 1015.9 hPa 0.0 l/m 1.5 km/h (1 Bft) NW 15.4 C 15.4 C
15.09.2004 01:00 14.4 C 99 % 1016.9 hPa 0.0 l/m 9.6 km/h (2 Bft) W-NW 14.2 C 14.4 C
15.09.2004 02:00 14.2 C 93 % 1017.1 hPa 0.0 l/m 1.3 km/h (1 Bft) W-NW 13.0 C 14.2 C
15.09.2004 03:00 13.8 C 92 % 1017.1 hPa 0.3 l/m 2.0 km/h (1 Bft) W 12.5 C 13.8 C
15.09.2004 04:00 13.7 C 94 % 1018.0 hPa 0.0 l/m 0.9 km/h (0 Bft) W 12.8 C 13.7 C
15.09.2004 05:00 13.6 C 96 % 1018.2 hPa 0.0 l/m 0.5 km/h (0 Bft) W 12.9 C 13.6 C
15.09.2004 06:00 13.5 C 97 % 1018.2 hPa 0.0 l/m 0.1 km/h (0 Bft) N 13.0 C 13.5 C
15.09.2004 07:00 13.7 C 96 % 1019.2 hPa 0.0 l/m 0.1 km/h (0 Bft) N 13.1 C 13.7 C
15.09.2004 08:00 13.9 C 97 % 1019.2 hPa 0.9 l/m 0.1 km/h (0 Bft) N 13.4 C 13.9 C
15.09.2004 09:00 13.9 C 99 % 1019.9 hPa 0.0 l/m 1.7 km/h (1 Bft) O-SO 13.7 C 13.9 C
15.09.2004 10:00 14.4 C 99 % 1020.2 hPa 0.0 l/m 1.6 km/h (1 Bft) O-SO 14.2 C 14.4 C
15.09.2004 11:00 14.9 C 92 % 1020.1 hPa 0.0 l/m 0.2 km/h (0 Bft) O 13.6 C 14.9 C
15.09.2004 12:00 15.1 C 90 % 1020.1 hPa 0.0 l/m 2.4 km/h (1 Bft) O-SO 13.5 C 15.1 C
15.09.2004 13:00 15.9 C 85 % 1020.0 hPa 0.0 l/m 3.1 km/h (1 Bft) O-SO 13.3 C 15.9 C
15.09.2004 14:00 17.8 C 74 % 1019.7 hPa 0.0 l/m 6.3 km/h (2 Bft) O-SO 13.1 C 17.8 C
15.09.2004 15:00 17.5 C 72 % 1019.8 hPa 0.0 l/m 8.7 km/h (2 Bft) O-SO 12.5 C 17.5 C
15.09.2004 16:00 17.8 C 70 % 1019.7 hPa 0.3 l/m 5.6 km/h (1 Bft) O-SO 12.2 C 17.8 C
15.09.2004 17:00 18.3 C 68 % 1019.7 hPa 0.0 l/m 1.8 km/h (1 Bft) O-SO 12.3 C 18.3 C
15.09.2004 18:00 17.1 C 71 % 1019.8 hPa 0.0 l/m 4.2 km/h (1 Bft) W-NW 11.8 C 17.1 C
15.09.2004 19:00 15.3 C 67 % 1021.0 hPa 0.0 l/m 10.4 km/h (2 Bft) W-NW 9.2 C 15.3 C
15.09.2004 20:00 12.8 C 81 % 1021.9 hPa 0.0 l/m 1.9 km/h (1 Bft) O-SO 9.7 C 12.8 C
15.09.2004 21:00 12.0 C 88 % 1023.0 hPa 0.0 l/m 6.2 km/h (2 Bft) O-SO 10.0 C 12.0 C
15.09.2004 22:00 11.5 C 90 % 1023.7 hPa 0.0 l/m 3.3 km/h (1 Bft) O 10.0 C 11.5 C
15.09.2004 23:00 11.0 C 95 % 1024.3 hPa 0.0 l/m 0.0 km/h (0 Bft) N 10.2 C 11.0 C
16.09.2004 00:00 11.5 C 96 % 1024.2 hPa 0.0 l/m 0.2 km/h (0 Bft) O 10.9 C 11.5 C
16.09.2004 01:00 11.5 C 95 % 1024.2 hPa 0.0 l/m 0.0 km/h (0 Bft) N 10.8 C 11.5 C
16.09.2004 02:00 11.3 C 96 % 1024.5 hPa 0.0 l/m 0.0 km/h (0 Bft) N 10.8 C 11.3 C
16.09.2004 03:00 10.9 C 98 % 1023.9 hPa 0.0 l/m 0.4 km/h (0 Bft) O 10.7 C 10.9 C
16.09.2004 04:00 9.7 C 99 % 1024.1 hPa 0.0 l/m 0.0 km/h (0 Bft) N 9.5 C 9.7 C
16.09.2004 05:00 9.0 C 100 % 1025.1 hPa 0.0 l/m 0.0 km/h (0 Bft) N 9.0 C 9.0 C
16.09.2004 06:00 9.4 C 100 % 1025.0 hPa 0.0 l/m 0.0 km/h (0 Bft) N 9.4 C 9.4 C
16.09.2004 07:00 10.3 C 100 % 1024.9 hPa 0.0 l/m 0.1 km/h (0 Bft) N 10.3 C 10.3 C
16.09.2004 08:00 11.1 C 98 % 1025.8 hPa 0.0 l/m 1.3 km/h (1 Bft) O 10.9 C 11.1 C
16.09.2004 09:00 12.2 C 86 % 1025.7 hPa 0.0 l/m 0.4 km/h (0 Bft) O 9.9 C 12.2 C
16.09.2004 10:00 13.5 C 73 % 1025.6 hPa 0.0 l/m 2.0 km/h (1 Bft) O 8.8 C 13.5 C
16.09.2004 11:00 14.9 C 66 % 1026.2 hPa 0.0 l/m 10.5 km/h (2 Bft) O-SO 8.7 C 14.9 C
16.09.2004 12:00 15.2 C 63 % 1025.3 hPa 0.0 l/m 3.7 km/h (1 Bft) O-SO 8.3 C 15.2 C
16.09.2004 13:00 15.8 C 61 % 1025.2 hPa 0.0 l/m 0.7 km/h (0 Bft) O-SO 8.2 C 15.8 C
16.09.2004 14:00 16.3 C 59 % 1024.2 hPa 0.0 l/m 0.2 km/h (0 Bft) N 8.4 C 16.3 C
16.09.2004 15:00 17.9 C 50 % 1023.9 hPa 0.0 l/m 2.9 km/h (1 Bft) O 7.4 C 17.9 C
16.09.2004 16:00 17.4 C 53 % 1023.9 hPa 0.0 l/m 0.3 km/h (0 Bft) N 7.8 C 17.4 C
16.09.2004 17:00 16.3 C 53 % 1024.1 hPa 0.0 l/m 0.5 km/h (0 Bft) O-NO 6.6 C 16.3 C
16.09.2004 18:00 16.4 C 55 % 1024.1 hPa 0.0 l/m 1.4 km/h (1 Bft) NO 7.3 C 16.4 C
16.09.2004 19:00 13.7 C 69 % 1024.4 hPa 0.0 l/m 1.6 km/h (1 Bft) O 8.1 C 13.7 C
16.09.2004 20:00 11.1 C 84 % 1025.5 hPa 0.0 l/m 0.3 km/h (0 Bft) O 8.4 C 11.1 C
16.09.2004 21:00 9.9 C 91 % 1026.0 hPa 0.0 l/m 0.0 km/h (0 Bft) N 8.6 C 9.9 C
16.09.2004 22:00 9.1 C 96 % 1026.1 hPa 0.0 l/m 0.1 km/h (0 Bft) O 8.4 C 9.1 C
16.09.2004 23:00 8.4 C 98 % 1026.2 hPa 0.0 l/m 0.1 km/h (0 Bft) O 8.1 C 8.4 C
17.09.2004 00:00 7.9 C 99 % 1026.3 hPa 0.0 l/m 0.2 km/h (0 Bft) O 7.8 C 7.9 C
17.09.2004 01:00 7.7 C 100 % 1026.3 hPa 0.0 l/m 0.6 km/h (0 Bft) O 7.7 C 7.7 C
17.09.2004 02:00 7.3 C 100 % 1026.4 hPa 0.0 l/m 3.6 km/h (1 Bft) O-SO 7.3 C 6.9 C
17.09.2004 03:00 6.9 C 100 % 1026.4 hPa 0.0 l/m 0.3 km/h (0 Bft) O-SO 6.9 C 6.9 C
17.09.2004 04:00 6.4 C 100 % 1026.5 hPa 0.0 l/m 2.8 km/h (1 Bft) O-SO 6.4 C 6.0 C
17.09.2004 05:00 6.3 C 100 % 1026.5 hPa 0.0 l/m 1.2 km/h (1 Bft) O-SO 6.3 C 6.2 C
17.09.2004 06:00 6.7 C 100 % 1026.4 hPa 0.0 l/m 0.1 km/h (0 Bft) O 6.7 C 6.7 C
17.09.2004 07:00 6.7 C 100 % 1026.4 hPa 0.0 l/m 0.4 km/h (0 Bft) O 6.7 C 6.7 C
17.09.2004 08:00 7.4 C 100 % 1026.3 hPa 0.0 l/m 0.1 km/h (0 Bft) N 7.4 C 7.4 C
17.09.2004 09:00 9.1 C 99 % 1026.1 hPa 0.0 l/m 0.2 km/h (0 Bft) O 9.0 C 9.1 C
17.09.2004 10:00 12.3 C 80 % 1025.6 hPa 0.0 l/m 6.7 km/h (2 Bft) O-SO 9.0 C 12.3 C
17.09.2004 11:00 14.0 C 71 % 1025.3 hPa 0.0 l/m 7.7 km/h (2 Bft) O-SO 8.9 C 14.0 C
17.09.2004 12:00 15.7 C 66 % 1025.1 hPa 0.0 l/m 5.5 km/h (1 Bft) O-SO 9.4 C 15.7 C
17.09.2004 13:00 17.5 C 61 % 1023.9 hPa 0.0 l/m 7.4 km/h (2 Bft) O-SO 9.8 C 17.5 C
17.09.2004 14:00 19.0 C 55 % 1023.7 hPa 0.0 l/m 7.1 km/h (2 Bft) O-SO 9.8 C 19.0 C
17.09.2004 15:00 19.7 C 54 % 1022.6 hPa 0.0 l/m 8.3 km/h (2 Bft) O-SO 10.3 C 19.7 C
17.09.2004 16:00 19.8 C 53 % 1022.5 hPa 0.0 l/m 8.4 km/h (2 Bft) O-SO 9.9 C 19.8 C
17.09.2004 17:00 19.4 C 56 % 1021.6 hPa 0.0 l/m 9.6 km/h (2 Bft) O-SO 10.4 C 19.4 C
17.09.2004 18:00 18.2 C 62 % 1021.7 hPa 0.0 l/m 3.2 km/h (1 Bft) O-SO 10.7 C 18.2 C
17.09.2004 19:00 15.7 C 75 % 1022.1 hPa 0.0 l/m 1.9 km/h (1 Bft) O-SO 11.3 C 15.7 C
17.09.2004 20:00 13.3 C 88 % 1022.4 hPa 0.0 l/m 3.5 km/h (1 Bft) O-SO 11.4 C 13.3 C
17.09.2004 21:00 11.7 C 94 % 1022.6 hPa 0.0 l/m 2.7 km/h (1 Bft) O-SO 10.8 C 11.7 C
17.09.2004 22:00 10.8 C 97 % 1023.0 hPa 0.0 l/m 2.7 km/h (1 Bft) O-SO 10.4 C 10.8 C
17.09.2004 23:00 10.0 C 99 % 1023.8 hPa 0.0 l/m 1.5 km/h (1 Bft) O-SO 9.9 C 10.0 C
18.09.2004 00:00 9.3 C 100 % 1024.0 hPa 0.0 l/m 1.0 km/h (0 Bft) O-SO 9.3 C 9.3 C
18.09.2004 01:00 8.7 C 100 % 1023.2 hPa 0.0 l/m 0.6 km/h (0 Bft) O-SO 8.7 C 8.7 C
18.09.2004 02:00 8.2 C 100 % 1023.1 hPa 0.0 l/m 1.5 km/h (1 Bft) O-SO 8.2 C 8.1 C
18.09.2004 03:00 9.3 C 100 % 1023.0 hPa 0.0 l/m 0.1 km/h (0 Bft) N 9.3 C 9.3 C
18.09.2004 04:00 9.8 C 100 % 1022.9 hPa 0.0 l/m 1.0 km/h (0 Bft) O-SO 9.8 C 9.7 C
18.09.2004 05:00 9.8 C 100 % 1022.9 hPa 0.0 l/m 0.3 km/h (0 Bft) O-SO 9.8 C 9.8 C
18.09.2004 06:00 9.6 C 100 % 1022.9 hPa 0.3 l/m 1.6 km/h (1 Bft) O-SO 9.6 C 9.6 C
18.09.2004 07:00 9.8 C 100 % 1022.9 hPa 0.0 l/m 1.6 km/h (1 Bft) O-SO 9.8 C 9.8 C
18.09.2004 08:00 9.8 C 100 % 1022.9 hPa 0.0 l/m 1.2 km/h (1 Bft) W-NW 9.8 C 9.7 C
18.09.2004 09:00 10.1 C 100 % 1022.8 hPa 0.0 l/m 0.5 km/h (0 Bft) W-NW 10.1 C 10.1 C
18.09.2004 10:00 11.1 C 100 % 1022.7 hPa 0.0 l/m 0.0 km/h (0 Bft) N 11.1 C 11.1 C
18.09.2004 11:00 12.7 C 94 % 1022.2 hPa 0.0 l/m 0.3 km/h (0 Bft) NW 11.7 C 12.7 C
18.09.2004 12:00 14.7 C 80 % 1021.2 hPa 0.0 l/m 1.9 km/h (1 Bft) W 11.2 C 14.7 C
18.09.2004 13:00 16.9 C 72 % 1020.1 hPa 0.0 l/m 2.5 km/h (1 Bft) W-NW 11.7 C 16.9 C
18.09.2004 14:00 20.4 C 61 % 1018.7 hPa 0.0 l/m 5.3 km/h (1 Bft) O-SO 12.7 C 20.4 C
18.09.2004 15:00 22.0 C 50 % 1017.9 hPa 0.0 l/m 5.1 km/h (1 Bft) O-SO 11.2 C 22.0 C
18.09.2004 16:00 22.1 C 51 % 1017.1 hPa 0.0 l/m 2.4 km/h (1 Bft) O-SO 11.5 C 22.1 C
18.09.2004 17:00 21.6 C 56 % 1016.9 hPa 0.0 l/m 3.3 km/h (1 Bft) W-NW 12.4 C 21.6 C
18.09.2004 18:00 20.6 C 61 % 1016.2 hPa 0.0 l/m 0.1 km/h (0 Bft) N 12.7 C 20.6 C
18.09.2004 19:00 18.1 C 75 % 1016.7 hPa 0.0 l/m 4.5 km/h (1 Bft) O-SO 13.6 C 18.1 C
18.09.2004 20:00 15.2 C 85 % 1018.0 hPa 0.0 l/m 1.5 km/h (1 Bft) O-SO 12.7 C 15.2 C
18.09.2004 21:00 13.6 C 92 % 1018.2 hPa 0.0 l/m 0.2 km/h (0 Bft) O-SO 12.3 C 13.6 C
18.09.2004 22:00 12.3 C 96 % 1018.6 hPa 0.0 l/m 0.3 km/h (0 Bft) O-SO 11.7 C 12.3 C
18.09.2004 23:00 11.3 C 98 % 1019.6 hPa 0.0 l/m 0.3 km/h (0 Bft) O-SO 11.0 C 11.3 C
19.09.2004 00:00 10.7 C 100 % 1019.5 hPa 0.0 l/m 1.0 km/h (0 Bft) O-SO 10.6 C 10.7 C
19.09.2004 01:00 9.9 C 100 % 1019.7 hPa 0.0 l/m 0.0 km/h (0 Bft) N 9.9 C 9.9 C
19.09.2004 02:00 9.7 C 100 % 1019.8 hPa 0.0 l/m 0.0 km/h (0 Bft) N 9.7 C 9.7 C
19.09.2004 03:00 11.0 C 100 % 1019.3 hPa 0.0 l/m 0.0 km/h (0 Bft) N 11.0 C 11.0 C
19.09.2004 04:00 11.2 C 100 % 1018.5 hPa 0.0 l/m 1.7 km/h (1 Bft) O-SO 11.2 C 11.2 C
19.09.2004 05:00 11.0 C 100 % 1018.8 hPa 0.0 l/m 0.0 km/h (0 Bft) N 11.0 C 11.0 C
19.09.2004 06:00 10.8 C 100 % 1018.6 hPa 0.0 l/m 0.3 km/h (0 Bft) O-NO 10.8 C 10.8 C
19.09.2004 07:00 10.9 C 100 % 1019.2 hPa 0.0 l/m 0.0 km/h (0 Bft) N 10.9 C 10.9 C
19.09.2004 08:00 11.2 C 100 % 1019.6 hPa 0.0 l/m 0.0 km/h (0 Bft) N 11.2 C 11.2 C
19.09.2004 09:00 11.7 C 100 % 1019.5 hPa 0.0 l/m 1.3 km/h (1 Bft) W-NW 11.7 C 11.7 C
19.09.2004 10:00 14.3 C 89 % 1020.0 hPa 0.0 l/m 0.5 km/h (0 Bft) SO 12.4 C 14.3 C
19.09.2004 11:00 17.3 C 71 % 1019.0 hPa 0.0 l/m 2.4 km/h (1 Bft) W-NW 11.9 C 17.3 C
19.09.2004 12:00 17.0 C 70 % 1019.3 hPa 0.0 l/m 8.1 km/h (2 Bft) W-NW 11.4 C 17.0 C
19.09.2004 13:00 16.8 C 72 % 1019.5 hPa 0.0 l/m 7.6 km/h (2 Bft) W-NW 11.7 C 16.8 C
19.09.2004 14:00 17.2 C 72 % 1018.8 hPa 0.0 l/m 1.9 km/h (1 Bft) W 12.1 C 17.2 C
19.09.2004 15:00 17.3 C 71 % 1018.8 hPa 0.0 l/m 10.1 km/h (2 Bft) W-NW 11.9 C 17.3 C
19.09.2004 16:00 16.7 C 77 % 1018.8 hPa 0.0 l/m 2.8 km/h (1 Bft) W 12.6 C 16.7 C
19.09.2004 17:00 16.8 C 82 % 1018.8 hPa 0.0 l/m 0.8 km/h (0 Bft) W 13.6 C 16.8 C
19.09.2004 18:00 16.4 C 86 % 1018.9 hPa 0.0 l/m 0.1 km/h (0 Bft) SO 14.1 C 16.4 C
19.09.2004 19:00 16.0 C 88 % 1019.7 hPa 0.0 l/m 1.3 km/h (1 Bft) O-SO 14.1 C 16.0 C
19.09.2004 20:00 15.3 C 95 % 1020.0 hPa 0.0 l/m 3.0 km/h (1 Bft) O-SO 14.5 C 15.3 C
19.09.2004 21:00 15.3 C 97 % 1020.1 hPa 0.0 l/m 0.8 km/h (0 Bft) O-SO 14.8 C 15.3 C
19.09.2004 22:00 15.2 C 98 % 1021.0 hPa 0.0 l/m 0.5 km/h (0 Bft) O-SO 14.9 C 15.2 C
19.09.2004 23:00 15.1 C 99 % 1021.1 hPa 0.0 l/m 2.6 km/h (1 Bft) O-SO 14.8 C 15.1 C
Min-Datum _ 17.09.04 13.09.04 13.09.04 - 13.09.04 - 16.09.04 17.09.04
_ Min-Zeit 05:25 16:55 19:22 - 00:01 - 17:04 04:28
Minimum _ 6.0 C 38 % 1012.0 hPa - 0.0 km/h (0 Bft) - 5.6 C 5.2 C
Max-Datum _ 13.09.04 13.09.04 17.09.04 14.09.04 14.09.04 - 14.09.04 13.09.04
_ Max-Zeit 16:31 04:04 05:25 18:28 18:25 - 13:10 16:31
Maximum _ 25.1 C 100 % 1026.5 hPa 4.0 l/m 35.2 km/h
NW (5 Bft)
- 18.1 C 25.1 C
Durchschnitt _ 14.2 C 86 % 1020.0 hPa #16.4 l/m 2.2 km/h (1 Bft) O-SO 11.4 C 14.2 C

Durchschnitt Minimum Temp.13.5 C
Durchschnitt Maximum Temp.14.9 C
© Kaiko 2004